sensor_id;sensor_type;location;lat;lon;timestamp;pressure;altitude;pressure_sealevel;temperature;humidity
8416;BME280;4245;42.120;24.732;2023-05-28T00:01:22;98982.75;;;18.07;100.00
8416;BME280;4245;42.120;24.732;2023-05-28T00:03:51;98968.94;;;17.94;100.00
8416;BME280;4245;42.120;24.732;2023-05-28T00:06:18;98974.22;;;18.12;100.00
8416;BME280;4245;42.120;24.732;2023-05-28T00:08:47;98977.88;;;18.11;100.00
8416;BME280;4245;42.120;24.732;2023-05-28T00:11:17;98984.25;;;18.02;100.00
8416;BME280;4245;42.120;24.732;2023-05-28T00:13:44;98992.34;;;18.10;100.00
8416;BME280;4245;42.120;24.732;2023-05-28T00:16:10;98991.88;;;18.22;100.00
8416;BME280;4245;42.120;24.732;2023-05-28T00:18:39;98982.75;;;18.07;100.00
8416;BME280;4245;42.120;24.732;2023-05-28T00:21:06;98992.03;;;18.13;100.00
8416;BME280;4245;42.120;24.732;2023-05-28T00:23:33;98983.59;;;18.08;100.00
8416;BME280;4245;42.120;24.732;2023-05-28T00:26:06;98974.84;;;18.06;100.00
8416;BME280;4245;42.120;24.732;2023-05-28T00:28:33;98982.34;;;17.86;100.00
8416;BME280;4245;42.120;24.732;2023-05-28T00:31:00;98974.63;;;17.91;100.00
8416;BME280;4245;42.120;24.732;2023-05-28T00:33:30;98974.81;;;17.98;100.00
8416;BME280;4245;42.120;24.732;2023-05-28T00:35:58;98984.56;;;17.99;100.00
8416;BME280;4245;42.120;24.732;2023-05-28T00:38:27;98977.84;;;17.95;100.00
8416;BME280;4245;42.120;24.732;2023-05-28T00:40:53;98990.09;;;17.97;100.00
8416;BME280;4245;42.120;24.732;2023-05-28T00:43:22;98984.94;;;18.04;100.00
8416;BME280;4245;42.120;24.732;2023-05-28T00:45:50;98976.25;;;18.18;100.00
8416;BME280;4245;42.120;24.732;2023-05-28T00:48:17;98974.91;;;18.14;100.00
8416;BME280;4245;42.120;24.732;2023-05-28T00:50:44;98973.56;;;18.26;100.00
8416;BME280;4245;42.120;24.732;2023-05-28T00:53:11;98974.72;;;18.15;100.00
8416;BME280;4245;42.120;24.732;2023-05-28T00:55:39;98972.38;;;18.20;100.00
8416;BME280;4245;42.120;24.732;2023-05-28T00:58:06;98967.97;;;18.11;100.00
8416;BME280;4245;42.120;24.732;2023-05-28T01:00:36;98961.91;;;18.01;100.00
8416;BME280;4245;42.120;24.732;2023-05-28T01:03:03;98963.66;;;18.27;100.00
8416;BME280;4245;42.120;24.732;2023-05-28T01:05:31;98968.69;;;18.21;100.00
8416;BME280;4245;42.120;24.732;2023-05-28T01:08:00;98961.75;;;18.03;100.00
8416;BME280;4245;42.120;24.732;2023-05-28T01:10:27;98962.38;;;17.97;100.00
8416;BME280;4245;42.120;24.732;2023-05-28T01:12:55;98959.22;;;18.01;100.00
8416;BME280;4245;42.120;24.732;2023-05-28T01:15:23;98954.69;;;18.02;100.00
8416;BME280;4245;42.120;24.732;2023-05-28T01:17:56;98950.28;;;17.93;100.00
8416;BME280;4245;42.120;24.732;2023-05-28T01:20:24;98944.84;;;17.76;100.00
8416;BME280;4245;42.120;24.732;2023-05-28T01:22:54;98948.84;;;17.72;100.00
8416;BME280;4245;42.120;24.732;2023-05-28T01:25:26;98954.28;;;17.80;100.00
8416;BME280;4245;42.120;24.732;2023-05-28T01:27:55;98943.84;;;17.77;100.00
8416;BME280;4245;42.120;24.732;2023-05-28T01:30:22;98944.25;;;17.91;100.00
8416;BME280;4245;42.120;24.732;2023-05-28T01:32:49;98940.72;;;17.98;100.00
8416;BME280;4245;42.120;24.732;2023-05-28T01:35:16;98935.69;;;17.95;100.00
8416;BME280;4245;42.120;24.732;2023-05-28T01:37:47;98935.22;;;18.08;100.00
8416;BME280;4245;42.120;24.732;2023-05-28T01:40:16;98946.44;;;17.95;100.00
8416;BME280;4245;42.120;24.732;2023-05-28T01:42:45;98936.34;;;17.97;100.00
8416;BME280;4245;42.120;24.732;2023-05-28T01:45:14;98954.16;;;17.98;100.00
8416;BME280;4245;42.120;24.732;2023-05-28T01:47:42;98942.06;;;17.94;100.00
8416;BME280;4245;42.120;24.732;2023-05-28T01:50:09;98943.69;;;17.87;100.00
8416;BME280;4245;42.120;24.732;2023-05-28T01:52:36;98941.09;;;18.03;100.00
8416;BME280;4245;42.120;24.732;2023-05-28T01:55:06;98935.34;;;17.98;100.00
8416;BME280;4245;42.120;24.732;2023-05-28T01:57:37;98940.88;;;17.97;100.00
8416;BME280;4245;42.120;24.732;2023-05-28T02:00:07;98943.09;;;18.01;100.00
8416;BME280;4245;42.120;24.732;2023-05-28T02:02:35;98948.16;;;18.12;100.00
8416;BME280;4245;42.120;24.732;2023-05-28T02:05:02;98947.69;;;18.17;100.00
8416;BME280;4245;42.120;24.732;2023-05-28T02:07:29;98950.72;;;18.22;100.00
8416;BME280;4245;42.120;24.732;2023-05-28T02:09:56;98946.84;;;18.16;100.00
8416;BME280;4245;42.120;24.732;2023-05-28T02:12:23;98942.78;;;18.12;100.00
8416;BME280;4245;42.120;24.732;2023-05-28T02:14:50;98935.91;;;18.10;100.00
8416;BME280;4245;42.120;24.732;2023-05-28T02:17:21;98928.88;;;18.25;100.00
8416;BME280;4245;42.120;24.732;2023-05-28T02:19:48;98926.72;;;18.29;100.00
8416;BME280;4245;42.120;24.732;2023-05-28T02:22:16;98930.75;;;18.24;100.00
8416;BME280;4245;42.120;24.732;2023-05-28T02:24:43;98936.44;;;18.21;100.00
8416;BME280;4245;42.120;24.732;2023-05-28T02:27:12;98934.13;;;18.35;100.00
8416;BME280;4245;42.120;24.732;2023-05-28T02:29:40;98933.78;;;18.30;100.00
8416;BME280;4245;42.120;24.732;2023-05-28T02:32:08;98937.28;;;18.30;100.00
8416;BME280;4245;42.120;24.732;2023-05-28T02:34:36;98944.31;;;18.15;100.00
8416;BME280;4245;42.120;24.732;2023-05-28T02:37:05;98938.94;;;18.15;100.00
8416;BME280;4245;42.120;24.732;2023-05-28T02:39:32;98938.09;;;18.14;100.00
8416;BME280;4245;42.120;24.732;2023-05-28T02:41:59;98933.03;;;18.11;100.00
8416;BME280;4245;42.120;24.732;2023-05-28T02:44:26;98931.69;;;18.07;100.00
8416;BME280;4245;42.120;24.732;2023-05-28T02:46:53;98931.53;;;18.17;100.00
8416;BME280;4245;42.120;24.732;2023-05-28T02:49:20;98930.03;;;18.14;100.00
8416;BME280;4245;42.120;24.732;2023-05-28T02:51:48;98941.66;;;18.23;100.00
8416;BME280;4245;42.120;24.732;2023-05-28T02:54:17;98946.69;;;18.18;100.00
8416;BME280;4245;42.120;24.732;2023-05-28T02:56:45;98943.00;;;18.19;100.00
8416;BME280;4245;42.120;24.732;2023-05-28T02:59:13;98951.22;;;18.25;100.00
8416;BME280;4245;42.120;24.732;2023-05-28T03:01:39;98953.75;;;18.27;100.00
8416;BME280;4245;42.120;24.732;2023-05-28T03:04:07;98963.34;;;18.30;100.00
8416;BME280;4245;42.120;24.732;2023-05-28T03:06:34;98968.19;;;18.26;100.00
8416;BME280;4245;42.120;24.732;2023-05-28T03:09:03;98972.59;;;18.35;100.00
8416;BME280;4245;42.120;24.732;2023-05-28T03:11:31;98977.81;;;18.37;100.00
8416;BME280;4245;42.120;24.732;2023-05-28T03:13:58;98979.88;;;18.51;100.00
8416;BME280;4245;42.120;24.732;2023-05-28T03:16:25;98981.34;;;18.45;100.00
8416;BME280;4245;42.120;24.732;2023-05-28T03:18:52;98976.66;;;18.39;100.00
8416;BME280;4245;42.120;24.732;2023-05-28T03:21:20;98970.72;;;18.28;100.00
8416;BME280;4245;42.120;24.732;2023-05-28T03:23:47;98973.13;;;18.39;100.00
8416;BME280;4245;42.120;24.732;2023-05-28T03:26:15;98976.47;;;18.41;100.00
8416;BME280;4245;42.120;24.732;2023-05-28T03:28:44;98975.97;;;18.45;100.00
8416;BME280;4245;42.120;24.732;2023-05-28T03:31:12;98977.31;;;18.49;100.00
8416;BME280;4245;42.120;24.732;2023-05-28T03:33:39;98981.34;;;18.45;100.00
8416;BME280;4245;42.120;24.732;2023-05-28T03:36:06;98981.34;;;18.45;100.00
8416;BME280;4245;42.120;24.732;2023-05-28T03:38:33;98988.78;;;18.43;100.00
8416;BME280;4245;42.120;24.732;2023-05-28T03:41:01;98991.63;;;18.50;100.00
8416;BME280;4245;42.120;24.732;2023-05-28T03:43:30;98984.63;;;18.57;100.00
8416;BME280;4245;42.120;24.732;2023-05-28T03:45:57;98988.94;;;18.50;100.00
8416;BME280;4245;42.120;24.732;2023-05-28T03:48:24;98994.94;;;18.36;100.00
8416;BME280;4245;42.120;24.732;2023-05-28T03:50:52;98998.31;;;18.30;100.00
8416;BME280;4245;42.120;24.732;2023-05-28T03:53:19;98992.13;;;17.95;100.00
8416;BME280;4245;42.120;24.732;2023-05-28T03:55:46;98986.91;;;17.94;100.00
8416;BME280;4245;42.120;24.732;2023-05-28T03:58:13;98990.75;;;17.91;100.00
8416;BME280;4245;42.120;24.732;2023-05-28T04:00:42;98989.03;;;17.82;100.00
8416;BME280;4245;42.120;24.732;2023-05-28T04:03:10;98982.78;;;17.73;100.00
8416;BME280;4245;42.120;24.732;2023-05-28T04:05:37;98991.03;;;17.80;100.00
8416;BME280;4245;42.120;24.732;2023-05-28T04:08:04;98998.03;;;17.73;100.00
8416;BME280;4245;42.120;24.732;2023-05-28T04:10:31;99001.28;;;17.76;100.00
8416;BME280;4245;42.120;24.732;2023-05-28T04:12:58;98994.50;;;17.72;100.00
8416;BME280;4245;42.120;24.732;2023-05-28T04:15:26;99000.13;;;17.87;100.00
8416;BME280;4245;42.120;24.732;2023-05-28T04:17:54;99004.59;;;18.04;100.00
8416;BME280;4245;42.120;24.732;2023-05-28T04:20:21;99004.34;;;17.90;100.00
8416;BME280;4245;42.120;24.732;2023-05-28T04:22:48;99007.91;;;17.98;100.00
8416;BME280;4245;42.120;24.732;2023-05-28T04:25:16;99016.91;;;18.15;100.00
8416;BME280;4245;42.120;24.732;2023-05-28T04:27:44;99014.94;;;17.91;100.00
8416;BME280;4245;42.120;24.732;2023-05-28T04:30:11;99023.44;;;17.78;100.00
8416;BME280;4245;42.120;24.732;2023-05-28T04:32:38;99018.94;;;17.87;100.00
8416;BME280;4245;42.120;24.732;2023-05-28T04:35:07;99014.16;;;17.73;100.00
8416;BME280;4245;42.120;24.732;2023-05-28T04:37:34;99018.03;;;17.70;100.00
8416;BME280;4245;42.120;24.732;2023-05-28T04:40:02;99018.88;;;17.53;100.00
8416;BME280;4245;42.120;24.732;2023-05-28T04:42:29;99018.47;;;17.40;100.00
8416;BME280;4245;42.120;24.732;2023-05-28T04:44:57;99030.00;;;17.32;100.00
8416;BME280;4245;42.120;24.732;2023-05-28T04:47:25;99030.00;;;17.32;100.00
8416;BME280;4245;42.120;24.732;2023-05-28T04:49:53;99034.66;;;17.30;100.00
8416;BME280;4245;42.120;24.732;2023-05-28T04:52:24;99032.34;;;17.35;100.00
8416;BME280;4245;42.120;24.732;2023-05-28T04:54:53;99044.16;;;17.43;100.00
8416;BME280;4245;42.120;24.732;2023-05-28T04:57:23;99040.63;;;17.42;100.00
8416;BME280;4245;42.120;24.732;2023-05-28T04:59:50;99038.78;;;17.43;100.00
8416;BME280;4245;42.120;24.732;2023-05-28T05:02:17;99039.41;;;17.36;100.00
8416;BME280;4245;42.120;24.732;2023-05-28T05:04:45;99039.38;;;17.54;100.00
8416;BME280;4245;42.120;24.732;2023-05-28T05:07:13;99037.47;;;17.47;100.00
8416;BME280;4245;42.120;24.732;2023-05-28T05:09:43;99033.63;;;17.49;100.00
8416;BME280;4245;42.120;24.732;2023-05-28T05:12:10;99044.22;;;17.51;100.00
8416;BME280;4245;42.120;24.732;2023-05-28T05:14:39;99038.22;;;17.57;100.00
8416;BME280;4245;42.120;24.732;2023-05-28T05:17:06;99043.34;;;17.68;100.00
8416;BME280;4245;42.120;24.732;2023-05-28T05:19:34;99038.81;;;17.68;100.00
8416;BME280;4245;42.120;24.732;2023-05-28T05:22:02;99036.03;;;17.78;100.00
8416;BME280;4245;42.120;24.732;2023-05-28T05:24:29;99047.84;;;17.85;100.00
8416;BME280;4245;42.120;24.732;2023-05-28T05:26:57;99038.88;;;17.76;100.00
8416;BME280;4245;42.120;24.732;2023-05-28T05:29:24;99038.78;;;17.86;100.00
8416;BME280;4245;42.120;24.732;2023-05-28T05:31:52;99048.34;;;17.89;100.00
8416;BME280;4245;42.120;24.732;2023-05-28T05:34:20;99058.50;;;17.77;100.00
8416;BME280;4245;42.120;24.732;2023-05-28T05:36:47;99059.56;;;17.84;100.00
8416;BME280;4245;42.120;24.732;2023-05-28T05:39:15;99055.22;;;17.91;100.00
8416;BME280;4245;42.120;24.732;2023-05-28T05:41:41;99065.44;;;18.13;100.00
8416;BME280;4245;42.120;24.732;2023-05-28T05:44:10;99061.69;;;18.06;100.00
8416;BME280;4245;42.120;24.732;2023-05-28T05:46:37;99066.94;;;18.08;100.00
8416;BME280;4245;42.120;24.732;2023-05-28T05:49:05;99073.84;;;18.10;100.00
8416;BME280;4245;42.120;24.732;2023-05-28T05:51:41;99078.19;;;18.11;100.00
8416;BME280;4245;42.120;24.732;2023-05-28T05:54:08;99079.00;;;18.04;100.00
8416;BME280;4245;42.120;24.732;2023-05-28T05:56:38;99077.94;;;17.97;100.00
8416;BME280;4245;42.120;24.732;2023-05-28T05:59:06;99074.41;;;17.96;100.00
8416;BME280;4245;42.120;24.732;2023-05-28T06:01:34;99079.00;;;18.04;100.00
8416;BME280;4245;42.120;24.732;2023-05-28T06:04:01;99078.59;;;17.91;100.00
8416;BME280;4245;42.120;24.732;2023-05-28T06:06:29;99082.75;;;17.85;100.00
8416;BME280;4245;42.120;24.732;2023-05-28T06:09:09;99082.31;;;17.72;100.00
8416;BME280;4245;42.120;24.732;2023-05-28T06:11:37;99074.53;;;17.61;100.00
8416;BME280;4245;42.120;24.732;2023-05-28T06:14:05;99083.88;;;17.57;100.00
8416;BME280;4245;42.120;24.732;2023-05-28T06:16:36;99082.75;;;17.85;100.00
8416;BME280;4245;42.120;24.732;2023-05-28T06:19:30;99077.09;;;17.96;100.00
8416;BME280;4245;42.120;24.732;2023-05-28T06:21:59;99086.13;;;17.87;100.00
8416;BME280;4245;42.120;24.732;2023-05-28T06:24:31;99087.44;;;17.83;100.00
8416;BME280;4245;42.120;24.732;2023-05-28T06:26:58;99083.16;;;17.72;100.00
8416;BME280;4245;42.120;24.732;2023-05-28T06:29:29;99089.06;;;17.58;100.00
8416;BME280;4245;42.120;24.732;2023-05-28T06:31:55;99081.91;;;17.59;100.00
8416;BME280;4245;42.120;24.732;2023-05-28T06:34:23;99081.97;;;17.67;100.00
8416;BME280;4245;42.120;24.732;2023-05-28T06:36:51;99083.03;;;17.56;100.00
8416;BME280;4245;42.120;24.732;2023-05-28T06:39:18;99069.34;;;17.67;100.00
8416;BME280;4245;42.120;24.732;2023-05-28T06:41:45;99073.63;;;17.78;100.00
8416;BME280;4245;42.120;24.732;2023-05-28T06:46:50;99071.47;;;18.07;100.00
8416;BME280;4245;42.120;24.732;2023-05-28T06:49:18;99076.31;;;18.38;100.00
8416;BME280;4245;42.120;24.732;2023-05-28T06:51:44;99074.50;;;18.46;100.00
8416;BME280;4245;42.120;24.732;2023-05-28T06:54:13;99077.53;;;18.43;100.00
8416;BME280;4245;42.120;24.732;2023-05-28T06:56:40;99081.13;;;18.26;100.00
8416;BME280;4245;42.120;24.732;2023-05-28T06:59:07;99079.50;;;18.41;100.00
8416;BME280;4245;42.120;24.732;2023-05-28T07:01:33;99086.56;;;18.68;100.00
8416;BME280;4245;42.120;24.732;2023-05-28T07:04:00;99088.28;;;18.93;100.00
8416;BME280;4245;42.120;24.732;2023-05-28T07:06:27;99094.88;;;19.15;100.00
8416;BME280;4245;42.120;24.732;2023-05-28T07:08:54;99094.75;;;19.41;100.00
8416;BME280;4245;42.120;24.732;2023-05-28T07:11:22;99092.56;;;19.77;100.00
8416;BME280;4245;42.120;24.732;2023-05-28T07:13:50;99096.47;;;20.29;100.00
8416;BME280;4245;42.120;24.732;2023-05-28T07:16:20;99096.84;;;20.26;100.00
8416;BME280;4245;42.120;24.732;2023-05-28T07:18:47;99102.59;;;20.31;100.00
8416;BME280;4245;42.120;24.732;2023-05-28T07:21:20;99093.91;;;20.52;100.00
8416;BME280;4245;42.120;24.732;2023-05-28T07:23:47;99094.50;;;20.70;100.00
8416;BME280;4245;42.120;24.732;2023-05-28T07:26:14;99090.78;;;20.71;100.00
8416;BME280;4245;42.120;24.732;2023-05-28T07:28:42;99087.41;;;20.69;100.00
8416;BME280;4245;42.120;24.732;2023-05-28T07:31:09;99082.09;;;20.53;100.00
8416;BME280;4245;42.120;24.732;2023-05-28T07:33:35;99080.59;;;20.51;100.00
8416;BME280;4245;42.120;24.732;2023-05-28T07:36:02;99081.44;;;20.51;100.00
8416;BME280;4245;42.120;24.732;2023-05-28T07:38:29;99075.03;;;20.52;100.00
8416;BME280;4245;42.120;24.732;2023-05-28T07:40:56;99080.31;;;20.37;100.00
8416;BME280;4245;42.120;24.732;2023-05-28T07:43:23;99084.03;;;20.36;100.00
8416;BME280;4245;42.120;24.732;2023-05-28T07:45:51;99079.63;;;20.35;100.00
8416;BME280;4245;42.120;24.732;2023-05-28T07:48:18;99088.00;;;20.57;100.00
8416;BME280;4245;42.120;24.732;2023-05-28T07:50:45;99095.16;;;21.03;100.00
8416;BME280;4245;42.120;24.732;2023-05-28T07:53:12;99106.06;;;21.18;100.00
8416;BME280;4245;42.120;24.732;2023-05-28T07:55:38;99111.59;;;21.47;100.00
8416;BME280;4245;42.120;24.732;2023-05-28T07:58:05;99108.50;;;21.50;100.00
8416;BME280;4245;42.120;24.732;2023-05-28T08:00:32;99106.44;;;21.38;100.00
8416;BME280;4245;42.120;24.732;2023-05-28T08:03:02;99099.22;;;21.30;100.00
8416;BME280;4245;42.120;24.732;2023-05-28T08:05:29;99096.94;;;21.11;100.00
8416;BME280;4245;42.120;24.732;2023-05-28T08:07:56;99100.78;;;20.94;100.00
8416;BME280;4245;42.120;24.732;2023-05-28T08:10:22;99096.28;;;20.86;100.00
8416;BME280;4245;42.120;24.732;2023-05-28T08:12:49;99107.41;;;20.52;100.00
8416;BME280;4245;42.120;24.732;2023-05-28T08:15:16;99098.25;;;19.90;100.00
8416;BME280;4245;42.120;24.732;2023-05-28T08:17:43;99096.81;;;19.55;100.00
8416;BME280;4245;42.120;24.732;2023-05-28T08:20:11;99087.50;;;19.33;100.00
8416;BME280;4245;42.120;24.732;2023-05-28T08:22:38;99087.81;;;19.22;100.00
8416;BME280;4245;42.120;24.732;2023-05-28T08:25:05;99087.81;;;19.06;100.00
8416;BME280;4245;42.120;24.732;2023-05-28T08:27:33;99078.72;;;19.07;100.00
8416;BME280;4245;42.120;24.732;2023-05-28T08:30:00;99080.59;;;19.15;100.00
8416;BME280;4245;42.120;24.732;2023-05-28T08:32:27;99076.44;;;19.44;100.00
8416;BME280;4245;42.120;24.732;2023-05-28T08:34:54;99086.88;;;19.56;100.00
8416;BME280;4245;42.120;24.732;2023-05-28T08:37:22;99080.22;;;19.90;100.00
8416;BME280;4245;42.120;24.732;2023-05-28T08:39:49;99079.00;;;20.09;100.00
8416;BME280;4245;42.120;24.732;2023-05-28T08:42:15;99074.25;;;20.35;100.00
8416;BME280;4245;42.120;24.732;2023-05-28T08:44:43;99070.44;;;20.53;100.00
8416;BME280;4245;42.120;24.732;2023-05-28T08:47:10;99077.59;;;20.76;100.00
8416;BME280;4245;42.120;24.732;2023-05-28T08:49:38;99077.47;;;20.70;100.00
8416;BME280;4245;42.120;24.732;2023-05-28T08:52:08;99073.69;;;21.10;100.00
8416;BME280;4245;42.120;24.732;2023-05-28T08:54:39;99079.94;;;21.33;100.00
8416;BME280;4245;42.120;24.732;2023-05-28T08:57:07;99079.72;;;20.89;100.00
8416;BME280;4245;42.120;24.732;2023-05-28T08:59:33;99076.03;;;21.58;100.00
8416;BME280;4245;42.120;24.732;2023-05-28T09:02:02;99075.03;;;22.12;100.00
8416;BME280;4245;42.120;24.732;2023-05-28T09:04:29;99081.34;;;22.33;100.00
8416;BME280;4245;42.120;24.732;2023-05-28T09:06:56;99071.94;;;22.29;100.00
8416;BME280;4245;42.120;24.732;2023-05-28T09:09:23;99074.53;;;22.08;100.00
8416;BME280;4245;42.120;24.732;2023-05-28T09:11:57;99080.06;;;22.29;100.00
8416;BME280;4245;42.120;24.732;2023-05-28T09:50:11;99082.00;;;22.65;100.00
8416;BME280;4245;42.120;24.732;2023-05-28T09:52:38;99078.38;;;23.08;100.00
8416;BME280;4245;42.120;24.732;2023-05-28T09:55:07;99076.09;;;23.75;100.00
8416;BME280;4245;42.120;24.732;2023-05-28T09:57:35;99066.84;;;24.25;100.00
8416;BME280;4245;42.120;24.732;2023-05-28T10:00:06;99070.88;;;24.84;100.00
8416;BME280;4245;42.120;24.732;2023-05-28T10:02:54;99058.50;;;25.29;100.00
8416;BME280;4245;42.120;24.732;2023-05-28T10:05:25;99052.66;;;25.32;100.00
8416;BME280;4245;42.120;24.732;2023-05-28T10:07:53;99054.13;;;26.13;100.00
8416;BME280;4245;42.120;24.732;2023-05-28T10:10:23;99060.34;;;26.98;100.00
8416;BME280;4245;42.120;24.732;2023-05-28T10:12:51;99055.31;;;27.01;100.00
8416;BME280;4245;42.120;24.732;2023-05-28T10:15:20;99048.06;;;27.51;67.90
8416;BME280;4245;42.120;24.732;2023-05-28T10:17:47;99056.78;;;26.97;68.90
8416;BME280;4245;42.120;24.732;2023-05-28T10:20:16;99040.03;;;26.43;71.79
8416;BME280;4245;42.120;24.732;2023-05-28T10:22:45;99045.38;;;25.85;68.62
8416;BME280;4245;42.120;24.732;2023-05-28T10:25:12;99037.13;;;26.18;71.61
8416;BME280;4245;42.120;24.732;2023-05-28T10:27:44;99028.69;;;26.52;70.46
8416;BME280;4245;42.120;24.732;2023-05-28T10:30:11;99027.13;;;26.63;70.06
8416;BME280;4245;42.120;24.732;2023-05-28T10:32:39;99019.88;;;26.50;71.97
8416;BME280;4245;42.120;24.732;2023-05-28T10:35:09;99014.44;;;26.50;66.99
8416;BME280;4245;42.120;24.732;2023-05-28T10:37:36;99008.97;;;26.57;66.19
8416;BME280;4245;42.120;24.732;2023-05-28T10:40:08;99001.50;;;26.19;69.39
8416;BME280;4245;42.120;24.732;2023-05-28T10:42:39;98993.44;;;25.86;71.76
8416;BME280;4245;42.120;24.732;2023-05-28T10:45:07;98993.56;;;26.18;70.37
8416;BME280;4245;42.120;24.732;2023-05-28T10:47:36;99000.94;;;26.04;73.24
8416;BME280;4245;42.120;24.732;2023-05-28T10:50:11;98998.34;;;26.35;68.95
8416;BME280;4245;42.120;24.732;2023-05-28T10:52:39;98990.25;;;26.09;73.06
8416;BME280;4245;42.120;24.732;2023-05-28T10:55:08;98997.06;;;26.82;71.47
8416;BME280;4245;42.120;24.732;2023-05-28T10:57:41;98998.88;;;27.02;66.58
8416;BME280;4245;42.120;24.732;2023-05-28T11:00:09;99006.66;;;26.98;64.68
8416;BME280;4245;42.120;24.732;2023-05-28T11:02:39;99004.06;;;26.72;67.49
8416;BME280;4245;42.120;24.732;2023-05-28T11:05:07;99002.38;;;26.26;70.73
8416;BME280;4245;42.120;24.732;2023-05-28T11:07:35;99003.91;;;25.89;73.43
8416;BME280;4245;42.120;24.732;2023-05-28T11:10:03;99003.31;;;25.74;75.05
8416;BME280;4245;42.120;24.732;2023-05-28T11:12:35;99013.94;;;25.43;79.13
8416;BME280;4245;42.120;24.732;2023-05-28T11:15:03;99020.34;;;24.89;91.04
8416;BME280;4245;42.120;24.732;2023-05-28T11:17:35;99012.97;;;23.60;97.04
8416;BME280;4245;42.120;24.732;2023-05-28T11:20:03;99017.84;;;22.65;100.00
8416;BME280;4245;42.120;24.732;2023-05-28T11:22:33;99010.56;;;22.00;100.00
8416;BME280;4245;42.120;24.732;2023-05-28T11:25:04;99004.66;;;21.67;100.00
8416;BME280;4245;42.120;24.732;2023-05-28T11:27:34;99001.53;;;21.56;100.00
8416;BME280;4245;42.120;24.732;2023-05-28T11:30:07;98995.09;;;21.42;100.00
8416;BME280;4245;42.120;24.732;2023-05-28T11:32:35;98995.75;;;21.44;100.00
8416;BME280;4245;42.120;24.732;2023-05-28T11:35:02;98996.78;;;21.43;100.00
8416;BME280;4245;42.120;24.732;2023-05-28T11:37:31;98984.84;;;21.38;100.00
8416;BME280;4245;42.120;24.732;2023-05-28T11:39:59;98989.06;;;21.69;100.00
8416;BME280;4245;42.120;24.732;2023-05-28T11:42:27;98986.84;;;21.58;100.00
8416;BME280;4245;42.120;24.732;2023-05-28T11:44:55;98985.69;;;21.53;100.00
8416;BME280;4245;42.120;24.732;2023-05-28T11:47:23;98989.13;;;21.47;100.00
8416;BME280;4245;42.120;24.732;2023-05-28T11:49:51;98983.97;;;21.22;100.00
8416;BME280;4245;42.120;24.732;2023-05-28T11:52:23;98989.94;;;21.33;100.00
8416;BME280;4245;42.120;24.732;2023-05-28T11:54:54;99000.56;;;21.11;100.00
8416;BME280;4245;42.120;24.732;2023-05-28T11:57:22;98991.50;;;21.04;100.00
8416;BME280;4245;42.120;24.732;2023-05-28T12:00:05;98985.91;;;21.06;100.00
8416;BME280;4245;42.120;24.732;2023-05-28T12:02:42;98985.44;;;21.02;100.00
8416;BME280;4245;42.120;24.732;2023-05-28T12:05:08;98984.25;;;21.28;100.00
8416;BME280;4245;42.120;24.732;2023-05-28T12:07:35;98986.59;;;21.45;100.00
8416;BME280;4245;42.120;24.732;2023-05-28T12:10:06;98996.13;;;21.56;100.00
8416;BME280;4245;42.120;24.732;2023-05-28T12:12:34;98992.69;;;21.62;100.00
8416;BME280;4245;42.120;24.732;2023-05-28T12:15:03;98994.72;;;22.12;100.00
8416;BME280;4245;42.120;24.732;2023-05-28T12:17:35;98994.47;;;22.43;100.00
8416;BME280;4245;42.120;24.732;2023-05-28T12:20:06;99010.50;;;22.44;100.00
8416;BME280;4245;42.120;24.732;2023-05-28T12:23:03;99008.16;;;22.41;100.00
8416;BME280;4245;42.120;24.732;2023-05-28T12:25:44;99007.84;;;22.30;100.00
8416;BME280;4245;42.120;24.732;2023-05-28T12:28:13;99001.69;;;22.06;100.00
8416;BME280;4245;42.120;24.732;2023-05-28T12:30:41;99005.53;;;21.97;100.00
8416;BME280;4245;42.120;24.732;2023-05-28T12:33:11;99005.22;;;21.92;100.00
8416;BME280;4245;42.120;24.732;2023-05-28T12:35:38;98997.38;;;21.68;100.00
8416;BME280;4245;42.120;24.732;2023-05-28T12:38:17;98994.91;;;21.44;100.00
8416;BME280;4245;42.120;24.732;2023-05-28T12:40:58;98996.22;;;21.48;100.00
8416;BME280;4245;42.120;24.732;2023-05-28T12:43:26;98987.13;;;21.26;100.00
8416;BME280;4245;42.120;24.732;2023-05-28T12:45:55;98975.59;;;21.32;100.00
8416;BME280;4245;42.120;24.732;2023-05-28T12:48:27;98981.97;;;21.16;100.00
8416;BME280;4245;42.120;24.732;2023-05-28T12:50:55;98981.34;;;21.06;100.00
8416;BME280;4245;42.120;24.732;2023-05-28T12:53:25;98973.94;;;20.86;100.00
8416;BME280;4245;42.120;24.732;2023-05-28T12:55:54;98970.03;;;20.88;100.00
8416;BME280;4245;42.120;24.732;2023-05-28T12:58:21;98972.22;;;21.07;100.00
8416;BME280;4245;42.120;24.732;2023-05-28T13:00:52;98976.81;;;21.30;100.00
8416;BME280;4245;42.120;24.732;2023-05-28T13:03:21;98977.22;;;21.56;100.00
8416;BME280;4245;42.120;24.732;2023-05-28T13:05:52;98977.91;;;21.73;100.00
8416;BME280;4245;42.120;24.732;2023-05-28T13:08:20;98969.97;;;21.86;100.00
8416;BME280;4245;42.120;24.732;2023-05-28T13:10:49;98982.09;;;22.19;100.00
8416;BME280;4245;42.120;24.732;2023-05-28T13:13:18;98979.16;;;22.50;100.00
8416;BME280;4245;42.120;24.732;2023-05-28T13:15:46;98979.41;;;22.55;100.00
8416;BME280;4245;42.120;24.732;2023-05-28T13:18:13;98974.19;;;22.89;100.00
8416;BME280;4245;42.120;24.732;2023-05-28T13:20:42;98970.34;;;23.05;100.00
8416;BME280;4245;42.120;24.732;2023-05-28T13:23:09;98955.97;;;23.26;100.00
8416;BME280;4245;42.120;24.732;2023-05-28T13:25:37;98954.56;;;22.87;100.00
8416;BME280;4245;42.120;24.732;2023-05-28T13:28:05;98949.69;;;22.40;100.00
8416;BME280;4245;42.120;24.732;2023-05-28T13:30:32;98942.34;;;22.56;100.00
8416;BME280;4245;42.120;24.732;2023-05-28T13:32:58;98942.66;;;22.67;100.00
8416;BME280;4245;42.120;24.732;2023-05-28T13:35:25;98941.34;;;22.78;100.00
8416;BME280;4245;42.120;24.732;2023-05-28T13:40:21;98930.34;;;23.28;100.00
8416;BME280;4245;42.120;24.732;2023-05-28T13:42:49;98935.91;;;23.48;100.00
8416;BME280;4245;42.120;24.732;2023-05-28T13:45:17;98937.72;;;23.62;100.00
8416;BME280;4245;42.120;24.732;2023-05-28T13:47:44;98935.53;;;23.86;100.00